Time;durP1;ratioP1;P1;durP2;ratioP2;P2;SDS_P1;SDS_P2;PMS_P1;PMS_P2;Temp;Humidity;BMP_temperature;BMP_pressure;BME280_temperature;BME280_humidity;BME280_pressure;Samples;Min_cycle;Max_cycle;Signal;HPM_P1;HPM_P2
2024/01/10 00:01:26;;;;;;;6.47;2.30;;;-4.40;99.90;;;;;;5051820;28;20427;-55
2024/01/10 00:03:55;;;;;;;4.47;2.40;;;-4.40;99.90;;;;;;5051906;28;20045;-57
2024/01/10 00:06:20;;;;;;;7.10;2.43;;;-4.30;99.90;;;;;;5052207;28;20076;-57
2024/01/10 00:08:46;;;;;;;6.67;2.40;;;-4.40;99.90;;;;;;5051884;28;20471;-57
2024/01/10 00:11:12;;;;;;;8.67;2.50;;;-4.40;99.90;;;;;;5051786;28;20048;-56
2024/01/10 00:13:37;;;;;;;6.23;2.20;;;-4.40;99.90;;;;;;5051922;28;20025;-56
2024/01/10 00:16:03;;;;;;;9.00;2.60;;;-4.40;99.90;;;;;;5052110;28;20056;-57
2024/01/10 00:18:30;;;;;;;8.13;2.77;;;-4.40;99.90;;;;;;5052152;28;20108;-56
2024/01/10 00:20:55;;;;;;;7.10;2.10;;;-4.40;99.90;;;;;;5052509;28;20083;-57
2024/01/10 00:23:22;;;;;;;7.70;2.40;;;-4.40;99.90;;;;;;5051702;28;20439;-58
2024/01/10 00:25:48;;;;;;;8.80;2.10;;;-4.40;99.90;;;;;;5051818;28;20028;-57
2024/01/10 00:28:16;;;;;;;3.67;2.10;;;-4.30;99.90;;;;;;5052208;28;20518;-58
2024/01/10 00:30:42;;;;;;;6.20;2.20;;;-4.30;99.90;;;;;;5055678;28;20523;-57
2024/01/10 00:33:07;;;;;;;8.50;2.57;;;-4.30;99.70;;;;;;5055786;28;20546;-57
2024/01/10 00:35:33;;;;;;;8.37;2.43;;;-4.30;99.90;;;;;;5055828;28;20029;-57
2024/01/10 00:37:59;;;;;;;9.67;2.90;;;-4.30;99.90;;;;;;5055942;28;20021;-56
2024/01/10 00:40:25;;;;;;;4.63;1.97;;;-4.30;99.90;;;;;;5055667;28;20382;-58
2024/01/10 00:42:50;;;;;;;4.10;2.07;;;-4.40;99.90;;;;;;5055669;28;20457;-56
2024/01/10 00:45:16;;;;;;;5.23;2.00;;;-4.40;99.90;;;;;;5055758;28;20128;-58
2024/01/10 00:47:42;;;;;;;7.23;2.93;;;-4.40;99.90;;;;;;5055897;28;20485;-55
2024/01/10 00:50:08;;;;;;;9.93;2.40;;;-4.40;99.70;;;;;;5055516;28;20450;-53
2024/01/10 00:52:34;;;;;;;7.10;2.47;;;-4.30;99.30;;;;;;5055592;28;20114;-56
2024/01/10 00:54:59;;;;;;;8.83;2.77;;;-4.30;99.70;;;;;;5055612;28;20955;-51
2024/01/10 00:57:25;;;;;;;7.37;2.47;;;-4.40;99.70;;;;;;5055548;28;20040;-54
2024/01/10 00:59:51;;;;;;;5.67;2.20;;;-4.40;99.60;;;;;;5055228;28;20090;-52
2024/01/10 01:02:16;;;;;;;6.37;1.73;;;-4.40;99.80;;;;;;5055280;28;20090;-53
2024/01/10 01:04:42;;;;;;;6.93;1.80;;;-4.40;99.40;;;;;;5054086;28;20401;-51
2024/01/10 01:07:07;;;;;;;5.50;2.13;;;-4.40;99.40;;;;;;5055515;28;20035;-54
2024/01/10 01:09:34;;;;;;;12.93;3.17;;;-4.40;99.70;;;;;;5054993;28;20040;-55
2024/01/10 01:11:59;;;;;;;5.97;1.87;;;-4.40;99.50;;;;;;5054992;28;20132;-53
2024/01/10 01:14:25;;;;;;;7.30;2.30;;;-4.40;99.30;;;;;;5055253;28;20502;-54
2024/01/10 01:16:50;;;;;;;9.67;2.27;;;-4.30;99.40;;;;;;5055299;28;20488;-55
2024/01/10 01:19:16;;;;;;;6.17;2.17;;;-4.40;99.50;;;;;;5054969;28;20025;-55
2024/01/10 01:21:42;;;;;;;11.17;2.47;;;-4.40;99.50;;;;;;5055100;28;20514;-57
2024/01/10 01:24:08;;;;;;;7.80;2.07;;;-4.40;99.40;;;;;;5055053;28;20033;-56
2024/01/10 01:26:33;;;;;;;5.90;2.20;;;-4.40;99.40;;;;;;5055082;28;20423;-57
2024/01/10 01:28:59;;;;;;;10.17;2.83;;;-4.40;99.70;;;;;;5055043;28;20087;-56
2024/01/10 01:31:24;;;;;;;9.57;2.47;;;-4.50;99.60;;;;;;5054774;28;20033;-56
2024/01/10 01:33:50;;;;;;;6.27;2.03;;;-4.50;99.70;;;;;;5054842;28;20037;-57
2024/01/10 01:36:16;;;;;;;8.90;2.37;;;-4.50;99.50;;;;;;5055026;28;20430;-54
2024/01/10 01:38:41;;;;;;;7.43;2.83;;;-4.60;99.60;;;;;;5054709;28;20167;-58
2024/01/10 01:41:07;;;;;;;11.17;2.57;;;-4.50;99.90;;;;;;5053812;28;20504;-57
2024/01/10 01:43:33;;;;;;;7.20;2.50;;;-4.50;99.90;;;;;;5054649;28;20553;-57
2024/01/10 01:45:59;;;;;;;10.27;3.17;;;-4.60;99.90;;;;;;5054577;28;20035;-57
2024/01/10 01:48:25;;;;;;;6.80;2.47;;;-4.50;99.90;;;;;;5054640;28;20443;-56
2024/01/10 01:51:04;;;;;;;4.80;1.90;;;-4.50;99.90;;;;;;5054809;28;20029;-58
2024/01/10 01:53:30;;;;;;;6.10;2.55;;;-4.60;99.90;;;;;;5053125;28;20163;-56
2024/01/10 01:55:56;;;;;;;6.07;2.23;;;-4.50;99.90;;;;;;5054521;28;20025;-56
2024/01/10 01:58:23;;;;;;;5.63;1.97;;;-4.60;99.90;;;;;;5054395;28;20435;-57
2024/01/10 02:00:50;;;;;;;7.07;2.17;;;-4.60;99.90;;;;;;5054277;28;20435;-55
2024/01/10 02:03:16;;;;;;;8.73;2.83;;;-4.60;99.90;;;;;;5054320;28;20959;-55
2024/01/10 02:05:41;;;;;;;7.77;2.40;;;-4.60;99.90;;;;;;5054358;28;20526;-56
2024/01/10 02:08:08;;;;;;;6.73;2.13;;;-4.70;99.90;;;;;;5054330;28;20875;-58
2024/01/10 02:10:34;;;;;;;7.27;2.80;;;-4.70;99.90;;;;;;5052740;28;20033;-58
2024/01/10 02:13:00;;;;;;;7.20;2.67;;;-4.60;99.90;;;;;;5053959;28;20459;-57
2024/01/10 02:15:26;;;;;;;8.97;2.37;;;-4.70;99.90;;;;;;5054372;28;20895;-58
2024/01/10 02:17:52;;;;;;;7.53;2.50;;;-4.70;99.90;;;;;;5053972;28;20534;-58
2024/01/10 02:20:18;;;;;;;9.87;2.50;;;-4.80;99.90;;;;;;5054035;28;20082;-58
2024/01/10 02:22:43;;;;;;;6.50;2.27;;;-4.80;99.90;;;;;;5054456;28;20478;-57
2024/01/10 02:25:10;;;;;;;7.10;2.47;;;-4.80;99.90;;;;;;5053820;28;20037;-56
2024/01/10 02:27:37;;;;;;;8.57;2.80;;;-4.90;99.90;;;;;;5053934;28;20478;-55
2024/01/10 02:30:05;;;;;;;7.40;2.97;;;-4.90;99.90;;;;;;5053876;28;20799;-56
2024/01/10 02:32:31;;;;;;;5.47;2.17;;;-5.00;99.90;;;;;;5053597;28;20478;-57
2024/01/10 02:34:56;;;;;;;5.50;2.33;;;-5.00;99.90;;;;;;5053691;28;20427;-56
2024/01/10 02:37:22;;;;;;;9.53;2.60;;;-5.10;99.90;;;;;;5053632;28;20037;-58
2024/01/10 02:39:48;;;;;;;7.37;3.00;;;-5.10;99.90;;;;;;5053408;28;20028;-56
2024/01/10 02:42:13;;;;;;;9.43;2.50;;;-5.00;99.90;;;;;;5053533;28;20029;-56
2024/01/10 02:44:39;;;;;;;8.27;2.63;;;-5.10;99.90;;;;;;5053759;28;20497;-58
2024/01/10 02:47:06;;;;;;;7.13;1.63;;;-5.10;99.90;;;;;;5053477;28;20435;-57
2024/01/10 02:49:32;;;;;;;12.73;3.10;;;-5.10;99.90;;;;;;5053241;28;20071;-57
2024/01/10 02:51:57;;;;;;;7.63;2.43;;;-5.00;99.90;;;;;;5052239;28;20459;-57
2024/01/10 02:54:23;;;;;;;6.93;2.37;;;-5.10;99.90;;;;;;5053288;28;20389;-55
2024/01/10 02:56:48;;;;;;;7.70;2.77;;;-5.10;99.90;;;;;;5053290;28;20028;-56
2024/01/10 02:59:14;;;;;;;5.90;2.47;;;-5.20;99.90;;;;;;5052881;28;20033;-57
2024/01/10 03:01:39;;;;;;;7.30;2.07;;;-5.20;99.90;;;;;;5052983;28;20078;-57
2024/01/10 03:04:05;;;;;;;7.83;2.97;;;-5.20;99.90;;;;;;5053215;28;20489;-56
2024/01/10 03:06:31;;;;;;;6.37;2.30;;;-5.30;99.90;;;;;;5053157;28;20033;-57
2024/01/10 03:08:56;;;;;;;7.67;2.70;;;-5.30;99.90;;;;;;5052868;28;20393;-56
2024/01/10 03:11:22;;;;;;;6.33;2.63;;;-5.30;99.90;;;;;;5052719;28;20032;-58
2024/01/10 03:13:49;;;;;;;8.93;2.83;;;-5.30;99.90;;;;;;5052879;28;20086;-54
2024/01/10 03:16:15;;;;;;;6.87;2.27;;;-5.40;99.90;;;;;;5052980;28;20029;-56
2024/01/10 03:18:41;;;;;;;9.00;2.47;;;-5.40;99.90;;;;;;5052793;28;20454;-56
2024/01/10 03:21:07;;;;;;;8.73;2.63;;;-5.40;99.90;;;;;;5052840;28;20056;-57
2024/01/10 03:23:32;;;;;;;5.47;2.07;;;-5.40;99.90;;;;;;5052691;28;20040;-57
2024/01/10 03:25:58;;;;;;;8.33;3.47;;;-5.40;99.90;;;;;;5053049;28;20036;-57
2024/01/10 03:28:24;;;;;;;11.47;3.40;;;-5.40;99.90;;;;;;5052664;28;20094;-56
2024/01/10 03:30:49;;;;;;;10.17;2.20;;;-5.40;99.90;;;;;;5052510;28;20032;-57
2024/01/10 03:33:15;;;;;;;5.60;2.30;;;-5.50;99.90;;;;;;5052619;28;20031;-58
2024/01/10 03:35:41;;;;;;;8.53;2.60;;;-5.50;99.90;;;;;;5052683;28;20392;-57
2024/01/10 03:38:07;;;;;;;6.20;2.57;;;-5.40;99.90;;;;;;5052545;28;20397;-55
2024/01/10 03:40:33;;;;;;;11.47;3.03;;;-5.40;99.90;;;;;;5052313;28;20481;-57
2024/01/10 03:42:59;;;;;;;6.53;2.97;;;-5.30;99.90;;;;;;5052450;28;20860;-57
2024/01/10 03:45:24;;;;;;;10.90;2.47;;;-5.30;99.90;;;;;;5052562;28;20481;-56
2024/01/10 03:47:50;;;;;;;6.97;2.47;;;-5.40;99.90;;;;;;5052272;28;20029;-56
2024/01/10 03:50:19;;;;;;;8.23;3.00;;;-5.50;99.90;;;;;;5052239;28;20044;-57
2024/01/10 03:52:46;;;;;;;4.05;1.90;;;-5.50;99.90;;;;;;5052033;28;20538;-57
2024/01/10 03:55:15;;;;;;;5.20;2.50;;;-5.60;99.90;;;;;;5052241;28;20459;-58
2024/01/10 03:57:42;;;;;;;8.90;2.90;;;-5.60;99.90;;;;;;5052161;28;20773;-58
2024/01/10 04:00:08;;;;;;;6.50;2.70;;;-5.60;99.90;;;;;;5052071;28;20208;-56
2024/01/10 04:02:36;;;;;;;9.57;2.43;;;-5.50;99.90;;;;;;5052204;28;20446;-58
2024/01/10 04:05:02;;;;;;;5.60;2.33;;;-5.50;99.90;;;;;;5051853;28;20530;-57
2024/01/10 04:07:28;;;;;;;12.10;3.13;;;-5.50;99.90;;;;;;5052024;28;20853;-56
2024/01/10 04:09:53;;;;;;;8.37;3.20;;;-5.60;99.90;;;;;;5051683;28;20504;-57
2024/01/10 04:12:19;;;;;;;10.20;2.97;;;-5.60;99.90;;;;;;5051804;28;20463;-56
2024/01/10 04:14:46;;;;;;;6.83;2.80;;;-5.70;99.90;;;;;;5052183;28;20049;-57
2024/01/10 04:17:11;;;;;;;6.23;2.77;;;-5.70;99.90;;;;;;5052045;28;21033;-58
2024/01/10 04:19:37;;;;;;;7.00;2.47;;;-5.70;99.90;;;;;;5051818;28;20098;-58
2024/01/10 04:22:03;;;;;;;5.63;2.10;;;-5.70;99.90;;;;;;5051888;28;20036;-57
2024/01/10 04:24:29;;;;;;;4.67;1.77;;;-5.70;99.90;;;;;;5052930;22;20050;-52
2024/01/10 04:26:54;;;;;;;9.47;2.47;;;-5.60;99.90;;;;;;5012042;28;20483;-53
2024/01/10 04:29:20;;;;;;;5.27;2.47;;;-5.60;99.90;;;;;;5011780;28;20045;-51
2024/01/10 04:31:45;;;;;;;10.47;2.60;;;-5.70;99.90;;;;;;5011954;28;20050;-50
2024/01/10 04:34:11;;;;;;;12.03;3.23;;;-5.70;99.90;;;;;;5011843;28;20483;-52
2024/01/10 04:36:37;;;;;;;5.50;2.40;;;-5.80;99.90;;;;;;5010625;28;20053;-50
2024/01/10 04:39:02;;;;;;;5.70;2.20;;;-5.80;99.90;;;;;;5011838;28;20079;-52
2024/01/10 04:41:28;;;;;;;9.50;2.67;;;-5.80;99.90;;;;;;5010570;28;20072;-56
2024/01/10 04:43:53;;;;;;;6.63;2.37;;;-5.80;99.90;;;;;;5010544;28;20372;-55
2024/01/10 04:46:19;;;;;;;9.40;2.37;;;-5.70;99.90;;;;;;5011830;28;20080;-53
2024/01/10 04:48:45;;;;;;;8.67;2.40;;;-5.70;99.90;;;;;;5011667;28;20030;-54
2024/01/10 04:51:10;;;;;;;9.60;2.87;;;-5.70;99.90;;;;;;5011463;28;20033;-53
2024/01/10 04:53:36;;;;;;;7.27;2.17;;;-5.80;99.90;;;;;;5011615;28;20109;-54
2024/01/10 04:56:01;;;;;;;8.80;2.17;;;-5.80;99.90;;;;;;5011816;28;20026;-56
2024/01/10 04:58:28;;;;;;;6.90;2.37;;;-5.80;99.90;;;;;;5011733;28;20057;-55
2024/01/10 05:00:54;;;;;;;11.67;3.90;;;-5.80;99.90;;;;;;5011450;28;20030;-54
2024/01/10 05:03:20;;;;;;;10.90;3.07;;;-5.80;99.90;;;;;;5011502;28;20432;-49
2024/01/10 05:05:45;;;;;;;9.70;3.97;;;-5.90;99.90;;;;;;5011580;28;20549;-54
2024/01/10 05:08:11;;;;;;;7.60;2.73;;;-5.90;99.90;;;;;;5011549;28;20056;-53
2024/01/10 05:10:36;;;;;;;7.03;2.80;;;-5.90;99.90;;;;;;5011496;28;20048;-53
2024/01/10 05:13:02;;;;;;;6.17;2.83;;;-5.80;99.90;;;;;;5011427;28;20030;-53
2024/01/10 05:15:28;;;;;;;7.27;2.80;;;-5.70;99.90;;;;;;5012494;28;20107;-53
2024/01/10 05:17:53;;;;;;;9.33;2.50;;;-5.80;99.90;;;;;;5015423;28;20105;-53
2024/01/10 05:20:19;;;;;;;8.27;2.93;;;-5.80;99.90;;;;;;5014991;28;20026;-51
2024/01/10 05:22:44;;;;;;;7.30;2.87;;;-5.70;99.90;;;;;;5015212;28;20033;-54
2024/01/10 05:25:10;;;;;;;7.77;2.60;;;-5.70;99.90;;;;;;5015075;28;20041;-52
2024/01/10 05:27:36;;;;;;;9.90;3.10;;;-5.70;99.90;;;;;;5015160;28;20116;-50
2024/01/10 05:30:01;;;;;;;9.07;2.83;;;-5.70;99.90;;;;;;5014987;28;20045;-51
2024/01/10 05:32:27;;;;;;;11.40;2.90;;;-5.70;99.90;;;;;;5014895;28;20037;-52
2024/01/10 05:34:54;;;;;;;8.70;2.93;;;-5.60;99.90;;;;;;5014852;28;20036;-54
2024/01/10 05:37:19;;;;;;;6.33;2.33;;;-5.70;99.90;;;;;;5015066;28;20022;-54
2024/01/10 05:39:45;;;;;;;6.63;2.90;;;-5.80;99.90;;;;;;5014846;28;20567;-49
2024/01/10 05:42:11;;;;;;;9.13;2.80;;;-5.70;99.90;;;;;;5014892;28;20036;-50
2024/01/10 05:44:37;;;;;;;10.70;3.17;;;-5.70;99.90;;;;;;5014878;28;20360;-54
2024/01/10 05:47:02;;;;;;;12.23;2.83;;;-5.70;99.90;;;;;;5014764;28;20495;-54
2024/01/10 05:49:29;;;;;;;8.07;2.90;;;-5.70;99.90;;;;;;5014455;28;20068;-52
2024/01/10 05:51:54;;;;;;;8.23;3.00;;;-5.80;99.90;;;;;;5014612;28;20562;-54
2024/01/10 05:54:20;;;;;;;5.70;2.37;;;-5.80;99.90;;;;;;5013242;28;20567;-53
2024/01/10 05:56:45;;;;;;;7.07;2.73;;;-5.80;99.90;;;;;;5014771;28;20033;-52
2024/01/10 05:59:11;;;;;;;7.70;3.10;;;-5.70;99.90;;;;;;5014557;28;20165;-54
2024/01/10 06:01:38;;;;;;;12.70;2.67;;;-5.70;99.90;;;;;;5013377;28;20056;-53
2024/01/10 06:04:05;;;;;;;6.93;2.47;;;-5.70;99.90;;;;;;5014440;28;20037;-52
2024/01/10 06:06:32;;;;;;;7.57;3.07;;;-5.60;99.90;;;;;;5014517;28;20428;-56
2024/01/10 06:08:58;;;;;;;6.73;2.00;;;-5.60;99.90;;;;;;5014430;28;20467;-53
2024/01/10 06:11:23;;;;;;;9.50;2.97;;;-5.60;99.90;;;;;;5014299;28;20432;-50
2024/01/10 06:13:49;;;;;;;9.70;2.83;;;-5.60;99.90;;;;;;5014463;28;20041;-51
2024/01/10 06:16:15;;;;;;;8.00;3.10;;;-5.60;99.90;;;;;;5014254;28;20034;-54
2024/01/10 06:18:40;;;;;;;12.53;3.03;;;-5.70;99.90;;;;;;5013810;28;20026;-53
2024/01/10 06:21:06;;;;;;;8.07;2.77;;;-5.60;99.90;;;;;;5014031;28;20030;-53
2024/01/10 06:23:32;;;;;;;15.73;4.10;;;-5.70;99.90;;;;;;5013942;28;20039;-51
2024/01/10 06:25:57;;;;;;;7.07;2.60;;;-5.70;99.90;;;;;;5013922;28;20033;-53
2024/01/10 06:28:25;;;;;;;8.70;3.40;;;-5.70;99.90;;;;;;5014270;28;20033;-56
2024/01/10 06:30:52;;;;;;;8.60;3.20;;;-5.70;99.90;;;;;;5014097;28;20475;-53
2024/01/10 06:33:19;;;;;;;8.63;3.47;;;-5.60;99.90;;;;;;5014002;28;20460;-51
2024/01/10 06:35:45;;;;;;;6.87;2.97;;;-5.60;99.90;;;;;;5014358;28;20984;-52
2024/01/10 06:38:11;;;;;;;10.40;3.27;;;-5.60;99.90;;;;;;5014137;28;20536;-54
2024/01/10 06:40:37;;;;;;;16.00;3.57;;;-5.70;99.90;;;;;;5013843;28;20022;-56
2024/01/10 06:43:08;;;;;;;9.03;2.70;;;-5.60;99.90;;;;;;5014032;28;20030;-52
2024/01/10 06:45:34;;;;;;;8.23;3.00;;;-5.60;99.90;;;;;;5012552;28;20025;-53
2024/01/10 06:47:59;;;;;;;7.37;2.90;;;-5.70;99.90;;;;;;5013752;28;20980;-53
2024/01/10 06:50:25;;;;;;;9.17;3.27;;;-5.70;99.90;;;;;;5013576;28;20440;-53
2024/01/10 06:52:51;;;;;;;14.53;3.40;;;-5.60;99.90;;;;;;5013643;28;20037;-55
2024/01/10 06:55:18;;;;;;;6.57;2.80;;;-5.60;99.90;;;;;;5013735;28;20033;-54
2024/01/10 06:57:43;;;;;;;8.93;2.93;;;-5.60;99.90;;;;;;5013718;28;20029;-54
2024/01/10 07:00:10;;;;;;;11.00;2.73;;;-5.70;99.90;;;;;;5013112;28;20444;-54
2024/01/10 07:02:39;;;;;;;8.53;3.63;;;-5.80;99.90;;;;;;5013346;28;20041;-53
2024/01/10 07:05:09;;;;;;;9.93;2.42;;;-5.80;99.90;;;;;;5013192;28;20472;-55
2024/01/10 07:07:35;;;;;;;9.23;3.63;;;-5.80;99.90;;;;;;5012113;28;20029;-54
2024/01/10 07:10:04;;;;;;;11.93;3.30;;;-5.80;99.90;;;;;;5012924;28;21017;-50
2024/01/10 07:12:31;;;;;;;10.52;2.92;;;-5.80;99.90;;;;;;5013190;28;20489;-51
2024/01/10 07:14:56;;;;;;;11.20;2.93;;;-5.80;99.90;;;;;;5012986;28;20052;-54
2024/01/10 07:17:22;;;;;;;9.43;3.83;;;-5.80;99.90;;;;;;5013195;28;20425;-53
2024/01/10 07:19:48;;;;;;;14.27;3.80;;;-5.80;99.90;;;;;;5012719;28;20033;-54
2024/01/10 07:22:14;;;;;;;10.40;3.93;;;-5.80;99.90;;;;;;5012987;28;20033;-52
2024/01/10 07:24:39;;;;;;;13.70;3.40;;;-5.70;99.90;;;;;;5012782;28;20120;-52
2024/01/10 07:27:06;;;;;;;11.37;3.77;;;-5.70;99.90;;;;;;5012991;28;20032;-54
2024/01/10 07:29:32;;;;;;;12.17;4.37;;;-5.70;99.90;;;;;;5012616;28;20040;-50
2024/01/10 07:31:58;;;;;;;8.73;3.13;;;-5.60;99.90;;;;;;5012666;28;20441;-51
2024/01/10 07:34:23;;;;;;;14.90;3.67;;;-5.70;99.90;;;;;;5012701;28;20037;-54
2024/01/10 07:36:49;;;;;;;13.97;4.43;;;-5.70;99.90;;;;;;5012708;28;20030;-49
2024/01/10 07:39:21;;;;;;;10.17;3.30;;;-5.70;99.90;;;;;;5011905;28;20030;-54
2024/01/10 07:41:49;;;;;;;15.00;3.10;;;-5.80;99.90;;;;;;5012656;28;20479;-54
2024/01/10 07:44:15;;;;;;;10.88;3.47;;;-5.70;99.90;;;;;;5011286;28;20440;-53
2024/01/10 07:46:41;;;;;;;10.70;3.83;;;-5.60;99.90;;;;;;5011565;28;20121;-53
2024/01/10 07:49:07;;;;;;;9.80;3.20;;;-5.60;99.90;;;;;;5012505;28;20041;-55
2024/01/10 07:51:34;;;;;;;12.13;4.10;;;-5.60;99.90;;;;;;5012562;28;20425;-54
2024/01/10 07:53:59;;;;;;;8.63;3.57;;;-5.60;99.90;;;;;;5012297;28;20180;-52
2024/01/10 07:56:25;;;;;;;8.77;3.50;;;-5.60;99.90;;;;;;5012173;28;20539;-54
2024/01/10 07:58:51;;;;;;;8.40;3.30;;;-5.50;99.90;;;;;;5010734;28;20030;-54
2024/01/10 08:01:17;;;;;;;9.23;3.23;;;-5.60;99.90;;;;;;5011908;28;20018;-55
2024/01/10 08:03:43;;;;;;;7.17;3.20;;;-5.60;99.90;;;;;;5012039;28;20444;-54
2024/01/10 08:06:11;;;;;;;10.33;3.60;;;-5.50;99.90;;;;;;5012139;28;20436;-51
2024/01/10 08:08:37;;;;;;;6.73;3.03;;;-5.40;99.90;;;;;;5012241;28;20119;-53
2024/01/10 08:11:03;;;;;;;9.20;3.40;;;-5.40;99.90;;;;;;5012294;28;20475;-51
2024/01/10 08:13:29;;;;;;;9.87;3.60;;;-5.50;99.90;;;;;;5012272;28;20566;-55
2024/01/10 08:15:54;;;;;;;10.30;3.87;;;-5.50;99.90;;;;;;5012139;28;20022;-56
2024/01/10 08:18:20;;;;;;;11.50;3.50;;;-5.50;99.90;;;;;;5012503;28;20431;-54
2024/01/10 08:20:46;;;;;;;11.00;3.63;;;-5.50;99.90;;;;;;5010617;28;20057;-52
2024/01/10 08:23:12;;;;;;;12.57;4.10;;;-5.50;99.90;;;;;;5010388;28;20038;-51
2024/01/10 08:25:38;;;;;;;10.23;3.83;;;-5.50;99.90;;;;;;5011835;28;20033;-54
2024/01/10 08:28:04;;;;;;;10.43;4.10;;;-5.50;99.90;;;;;;5011423;28;20440;-52
2024/01/10 08:30:29;;;;;;;11.77;3.90;;;-5.50;99.90;;;;;;5010866;28;20440;-51
2024/01/10 08:32:55;;;;;;;15.10;4.40;;;-5.50;99.90;;;;;;4994146;28;20471;-55
2024/01/10 08:35:20;;;;;;;14.27;4.60;;;-5.40;99.90;;;;;;5012135;28;20033;-55
2024/01/10 08:37:46;;;;;;;13.03;3.87;;;-5.40;99.90;;;;;;5011921;28;20495;-51
2024/01/10 08:40:14;;;;;;;9.27;4.17;;;-5.20;99.90;;;;;;5011801;28;20033;-51
2024/01/10 08:42:40;;;;;;;11.03;3.70;;;-5.20;99.90;;;;;;5011874;28;20038;-51
2024/01/10 08:45:09;;;;;;;11.47;4.03;;;-5.20;99.90;;;;;;5011947;28;20444;-54
2024/01/10 08:47:35;;;;;;;11.10;3.93;;;-5.10;99.90;;;;;;5011568;28;20437;-51
2024/01/10 08:50:02;;;;;;;8.73;3.47;;;-5.10;99.90;;;;;;5013270;28;20445;-53
2024/01/10 08:52:27;;;;;;;13.10;3.83;;;-5.10;99.90;;;;;;5015536;28;21020;-53
2024/01/10 08:54:53;;;;;;;11.83;3.47;;;-5.10;99.90;;;;;;5014319;28;20436;-50
2024/01/10 08:57:18;;;;;;;10.50;4.10;;;-5.00;99.90;;;;;;5015549;28;20061;-51
2024/01/10 08:59:44;;;;;;;12.60;3.70;;;-5.00;99.90;;;;;;5015418;28;20030;-52
2024/01/10 09:02:10;;;;;;;13.37;4.03;;;-4.80;99.90;;;;;;5015635;28;20030;-53
2024/01/10 09:04:36;;;;;;;18.83;3.97;;;-4.80;99.90;;;;;;5014312;28;20065;-51
2024/01/10 09:07:01;;;;;;;16.40;4.37;;;-4.70;99.90;;;;;;5015557;28;20502;-53
2024/01/10 09:09:27;;;;;;;16.37;4.27;;;-4.70;99.90;;;;;;5015126;28;20018;-51
2024/01/10 09:11:53;;;;;;;12.67;4.40;;;-4.60;99.90;;;;;;5015400;28;20474;-51
2024/01/10 09:14:19;;;;;;;12.93;3.90;;;-4.50;99.90;;;;;;5015319;28;20052;-52
2024/01/10 09:16:45;;;;;;;11.03;4.07;;;-4.40;99.90;;;;;;5015303;28;20101;-52
2024/01/10 09:19:11;;;;;;;13.33;4.53;;;-4.40;99.90;;;;;;5014775;28;21122;-52
2024/01/10 09:21:36;;;;;;;12.67;3.80;;;-4.40;99.90;;;;;;5007811;28;20026;-51
2024/01/10 09:24:05;;;;;;;15.80;5.07;;;-4.30;99.90;;;;;;5014764;28;20034;-54
2024/01/10 09:26:31;;;;;;;15.87;5.10;;;-4.20;99.90;;;;;;5014113;28;20045;-53
2024/01/10 09:28:56;;;;;;;16.47;4.60;;;-4.10;99.90;;;;;;5014750;28;20471;-50
2024/01/10 09:31:22;;;;;;;15.17;4.60;;;-4.00;99.90;;;;;;5014377;28;20133;-56
2024/01/10 09:33:47;;;;;;;15.50;4.53;;;-3.90;99.90;;;;;;5014652;28;20026;-51
2024/01/10 09:36:14;;;;;;;14.10;5.30;;;-3.80;99.90;;;;;;5014918;28;20060;-51
2024/01/10 09:38:40;;;;;;;15.50;5.23;;;-3.80;99.90;;;;;;5013252;28;20505;-53
2024/01/10 09:41:05;;;;;;;14.43;5.20;;;-3.70;99.90;;;;;;5014586;28;20432;-52
2024/01/10 09:43:33;;;;;;;12.03;4.80;;;-3.60;99.90;;;;;;5014044;28;20037;-53
2024/01/10 09:46:00;;;;;;;12.60;4.67;;;-3.50;99.90;;;;;;5014877;28;20034;-52
2024/01/10 09:48:26;;;;;;;15.13;5.17;;;-3.30;99.90;;;;;;5014718;28;20980;-55
2024/01/10 09:50:52;;;;;;;18.77;4.73;;;-3.20;99.90;;;;;;5014576;28;20460;-50
2024/01/10 09:53:23;;;;;;;19.13;5.57;;;-3.20;99.90;;;;;;5014595;28;20076;-48
2024/01/10 09:55:49;;;;;;;15.60;5.10;;;-3.00;99.90;;;;;;5015227;28;20755;-52
2024/01/10 09:58:15;;;;;;;14.00;4.93;;;-2.80;99.90;;;;;;5014877;28;20444;-52
2024/01/10 10:00:41;;;;;;;15.33;5.80;;;-2.70;99.90;;;;;;5015128;28;20033;-51
2024/01/10 10:03:12;;;;;;;17.67;4.73;;;-2.50;99.90;;;;;;5015396;28;20442;-49
2024/01/10 10:05:38;;;;;;;20.67;5.70;;;-1.70;99.90;;;;;;5017247;28;20034;-50
2024/01/10 10:08:07;;;;;;;12.17;5.40;;;-0.20;98.40;;;;;;5014212;28;20030;-48
2024/01/10 10:10:32;;;;;;;16.08;5.60;;;1.60;95.90;;;;;;5015800;28;20037;-53
2024/01/10 10:12:58;;;;;;;15.87;6.33;;;3.30;91.80;;;;;;5016651;28;20029;-48
2024/01/10 10:15:27;;;;;;;19.37;6.33;;;4.00;90.00;;;;;;5016348;28;20447;-52
2024/01/10 10:17:54;;;;;;;;;;;4.50;86.50;;;;;;5016054;28;20097;-54
2024/01/10 10:20:24;;;;;;;15.83;7.23;;;5.10;81.60;;;;;;5014130;28;19921;-55
2024/01/10 10:23:04;;;;;;;17.90;7.17;;;5.80;78.90;;;;;;5014243;28;20030;-55
2024/01/10 10:25:34;;;;;;;19.37;7.60;;;6.10;77.00;;;;;;5013946;28;20034;-54
2024/01/10 10:28:01;;;;;;;19.53;7.73;;;6.40;75.70;;;;;;5014132;28;20084;-53
2024/01/10 10:30:31;;;;;;;17.27;7.63;;;7.40;71.90;;;;;;5014040;28;20034;-51
2024/01/10 10:32:57;;;;;;;18.35;8.38;;;7.90;70.60;;;;;;5012633;28;20026;-55
2024/01/10 10:35:23;;;;;;;16.77;8.00;;;8.20;68.50;;;;;;5014002;28;20180;-52
2024/01/10 10:37:50;;;;;;;16.95;7.93;;;8.80;67.20;;;;;;5013878;28;20034;-53
2024/01/10 10:40:16;;;;;;;17.52;8.30;;;9.20;64.50;;;;;;5013822;28;20133;-53
2024/01/10 10:42:47;;;;;;;18.58;7.93;;;9.40;64.30;;;;;;5013616;28;20048;-54
2024/01/10 10:45:19;;;;;;;17.98;8.90;;;10.40;60.60;;;;;;5013018;28;20049;-52
2024/01/10 10:47:49;;;;;;;18.08;8.55;;;10.60;58.30;;;;;;5012399;28;20049;-54
2024/01/10 10:50:24;;;;;;;21.88;9.63;;;10.20;58.20;;;;;;5013681;28;20117;-54
2024/01/10 10:52:51;;;;;;;16.85;8.02;;;9.70;59.00;;;;;;5013710;28;20109;-52
2024/01/10 10:55:18;;;;;;;19.80;9.55;;;9.80;59.10;;;;;;5013803;28;20034;-54
2024/01/10 10:57:48;;;;;;;17.88;8.63;;;9.50;58.20;;;;;;5013525;28;20026;-51
2024/01/10 11:00:19;;;;;;;17.85;8.77;;;9.00;58.90;;;;;;5013380;28;20030;-55
2024/01/10 11:02:46;;;;;;;20.95;9.60;;;8.60;59.60;;;;;;5013527;28;20104;-52
2024/01/10 11:05:12;;;;;;;18.50;9.38;;;8.50;59.80;;;;;;5013641;28;20490;-50
2024/01/10 11:07:40;;;;;;;19.13;8.43;;;8.40;59.60;;;;;;5013581;28;20115;-54
2024/01/10 11:10:21;;;;;;;19.07;9.33;;;8.10;60.00;;;;;;5013300;28;20026;-50
2024/01/10 11:13:06;;;;;;;19.17;9.00;;;7.60;61.30;;;;;;5012658;28;20806;-55
2024/01/10 11:15:50;;;;;;;22.35;9.68;;;7.90;60.30;;;;;;5013446;28;20042;-55
2024/01/10 11:18:22;;;;;;;17.33;9.05;;;7.90;59.90;;;;;;5013429;28;20033;-52
2024/01/10 11:20:58;;;;;;;19.40;9.05;;;7.50;60.70;;;;;;5013136;28;20032;-54
2024/01/10 11:23:42;;;;;;;19.25;8.35;;;7.20;61.50;;;;;;4995565;28;20044;-53
2024/01/10 11:26:08;;;;;;;17.73;8.68;;;7.10;61.40;;;;;;5013402;28;20129;-54
2024/01/10 11:28:37;;;;;;;20.42;8.80;;;6.90;61.90;;;;;;5013544;28;20085;-49
2024/01/10 11:31:03;;;;;;;18.17;8.68;;;6.30;63.20;;;;;;5012415;28;20117;-49
2024/01/10 11:33:39;;;;;;;20.73;8.47;;;6.10;63.50;;;;;;5012990;28;20463;-56
2024/01/10 11:36:13;;;;;;;19.67;8.40;;;5.90;64.20;;;;;;5013015;28;20036;-55
2024/01/10 11:38:53;;;;;;;19.70;9.03;;;5.90;64.10;;;;;;5012797;28;20041;-49
2024/01/10 11:41:24;;;;;;;17.33;8.50;;;5.80;64.30;;;;;;5012043;28;20030;-50
2024/01/10 11:44:08;;;;;;;18.37;8.83;;;5.80;64.70;;;;;;5012676;28;20037;-57
2024/01/10 11:46:34;;;;;;;19.10;8.73;;;5.70;64.80;;;;;;5012617;28;20091;-51
2024/01/10 11:49:00;;;;;;;19.20;8.97;;;5.20;65.60;;;;;;5013143;28;20434;-54
2024/01/10 11:51:26;;;;;;;21.37;8.90;;;4.70;67.20;;;;;;5012766;28;20042;-53
2024/01/10 11:53:52;;;;;;;18.27;8.57;;;4.10;69.10;;;;;;5012816;28;20033;-52
2024/01/10 11:56:18;;;;;;;20.60;8.20;;;3.80;70.10;;;;;;5012906;28;20052;-53
2024/01/10 11:58:54;;;;;;;19.50;8.03;;;3.60;69.70;;;;;;5012755;28;20026;-55
2024/01/10 12:01:22;;;;;;;19.23;8.33;;;4.00;70.90;;;;;;5012705;28;20080;-54
2024/01/10 12:03:51;;;;;;;18.97;8.83;;;4.60;69.40;;;;;;5012930;28;20061;-55
2024/01/10 12:06:17;;;;;;;22.25;8.95;;;5.20;67.70;;;;;;5013203;28;20026;-57
2024/01/10 12:08:43;;;;;;;18.60;8.53;;;5.30;67.10;;;;;;5012687;28;20459;-53
2024/01/10 12:11:09;;;;;;;16.70;7.80;;;5.10;67.70;;;;;;5012682;28;20057;-55
2024/01/10 12:13:34;;;;;;;23.90;9.17;;;4.60;67.70;;;;;;5012810;28;20068;-54
2024/01/10 12:16:00;;;;;;;17.43;8.17;;;3.80;69.40;;;;;;5012913;28;20053;-53
2024/01/10 12:18:26;;;;;;;17.27;8.07;;;3.30;71.10;;;;;;5011475;28;20042;-54
2024/01/10 12:20:51;;;;;;;19.20;7.83;;;2.90;72.60;;;;;;5012493;28;20084;-54
2024/01/10 12:23:17;;;;;;;24.03;8.63;;;2.70;73.30;;;;;;5012558;28;20040;-52
2024/01/10 12:25:43;;;;;;;17.70;7.70;;;2.60;74.50;;;;;;5012466;28;20479;-54
2024/01/10 12:28:08;;;;;;;21.87;8.43;;;2.90;74.30;;;;;;5012532;28;20033;-55
2024/01/10 12:30:34;;;;;;;19.57;8.30;;;3.20;73.20;;;;;;5010894;28;20471;-54
2024/01/10 12:33:00;;;;;;;20.03;7.80;;;3.40;72.60;;;;;;5012229;28;20048;-54
2024/01/10 12:35:26;;;;;;;18.07;8.03;;;3.50;72.70;;;;;;5012361;28;20026;-53
2024/01/10 12:37:57;;;;;;;21.73;8.57;;;3.90;72.20;;;;;;5012167;28;20104;-54
2024/01/10 12:40:23;;;;;;;18.53;8.37;;;4.20;70.70;;;;;;5012057;28;20156;-54